• Join FlightAware (Why Join?)
  • Login
  • US Flag 
01:31PM EDT


 

Airport Tracker/Info


-or-


 

Live Flight TrackerFlight Track Log ✈ AWE3874 ✈ 19-May-2013 ✈ KOAJ - KCLT

Flight Track Log - Related Links

Times and Time Zones

All times are in EDT time to prevent confusion due to time zone crossing. See the AWE3874 flight status page for this flight to view local times or setup timezone preferences in your user account.

Time Position Orientation Groundspeed Altitude Reporting Facility
EDT Latitude Longitude Course Direction KTS MPH feet Rate Location/Type
02:34PM 34.8981 -77.7117 317° Northwest 249 287 3,800  Level Washington Center
02:35PM 34.9553 -77.7764 317° Northwest 270 311 6,700 2,580 Climbing Washington Center
02:36PM 35.0144 -77.8389 319° Northwest 281 323 9,000 2,220 Climbing Washington Center
02:37PM 35.0758 -77.9067 318° Northwest 287 330 11,200 2,160 Climbing Washington Center
02:38PM 35.1411 -77.9769 319° Northwest 294 338 13,500 2,160 Climbing Washington Center
02:39PM 35.2064 -78.0503 317° Northwest 306 352 15,600 1,200 Climbing Washington Center
02:40PM 35.2739 -78.1208 320° Northwest 316 364 16,000 240 Climbing Washington Center
02:41PM 35.3242 -78.2092 316° Northwest 316 364 16,100  Climbing Washington Center
02:42PM 35.3614 -78.3147 293° West 316 364 16,000 -60 Descending Washington Center
02:43PM 35.3967 -78.4203 292° West 328 377 16,000  Level Washington Center
02:44PM 35.4356 -78.5289 294° West 344 396 16,000  Level Washington Center
02:45PM 35.4747 -78.6372 294° West 344 396 16,000  Level Washington Center
02:46PM 35.5136 -78.7486 293° West 350 403 16,000  Level Washington Center
02:47PM 35.5483 -78.8494 293° West 355 409 16,000  Level Washington Center
02:48PM 35.5850 -78.9583 293° West 355 409 16,000  Level Washington Center
02:49PM 35.6236 -79.0672 294° West 355 409 16,000  Level Washington Center
02:50PM 35.6661 -79.1867 294° West 348 400 16,000  Level Washington Center
02:51PM 35.7025 -79.2881 294° West 341 392 16,000  Level Washington Center
02:53PM 35.7694 -79.4908 292° West 320 368 16,000  Level Atlanta Center
02:54PM 35.8069 -79.5989 293° West 320 368 16,000  Level Atlanta Center
02:55PM 35.8131 -79.7136 274° West 315 362 16,000  Level Atlanta Center
02:56PM 35.8478 -79.8092 294° West 310 357 16,000 -240 Level Atlanta Center
02:57PM 35.8900 -79.8889 303° West 310 357 15,600 -720 Descending Atlanta Center
02:58PM 35.9372 -79.9867 301° West 321 369 14,600 -1,080 Descending Atlanta Center
02:59PM 35.9381 -80.0764 271° West 288 331 13,500 -960 Descending Atlanta Center
03:00PM 35.8856 -80.1328 221° Southwest 292 336 13,000 -540 Descending Atlanta Center
03:00PM 35.8753 -80.1408 212° Southwest 248 285 13,000  Level Atlanta Center
03:01PM 35.8064 -80.2006 215° Southwest 288 331 13,000  Level Atlanta Center
03:02PM 35.7522 -80.2669 225° Southwest 284 327 13,000  Level Atlanta Center
03:03PM 35.7069 -80.3611 239° Southwest 289 333 13,000  Level Atlanta Center
03:04PM 35.6656 -80.4447 239° Southwest 296 341 13,000  Level Atlanta Center
03:04PM 35.6656 -80.4447 239° Southwest 299 344 13,000 -1,740 Level Atlanta Center
03:05PM 35.6242 -80.5258 238° Southwest 293 337 11,300 -1,920 Descending Atlanta Center
03:06PM 35.5697 -80.5919 225° Southwest 288 331 9,200 -2,100 Descending Atlanta Center
03:07PM 35.4978 -80.6256 201° Southwest 277 319 7,200 -1,800 Descending Atlanta Center
03:08PM 35.4708 -80.7108 249° West 254 292 5,600 -1,680 Descending Atlanta Center
03:09PM 35.4414 -80.7861 244° Southwest 254 292 3,900 -1,740 Descending Atlanta Center